createdAt,value
2017-02-13T00:00:47.583Z,0
2017-02-13T00:01:58.277Z,0
2017-02-13T00:03:08.572Z,0
2017-02-13T00:04:18.860Z,0
2017-02-13T00:05:29.332Z,0
2017-02-13T00:06:39.243Z,0
2017-02-13T00:07:49.932Z,0
2017-02-13T00:08:59.441Z,0
2017-02-13T00:10:09.779Z,0
2017-02-13T00:11:20.039Z,0
2017-02-13T00:12:29.962Z,0
2017-02-13T00:13:40.281Z,0
2017-02-13T00:14:50.596Z,0
2017-02-13T00:16:01.293Z,0
2017-02-13T00:17:12.065Z,0
2017-02-13T00:18:21.998Z,0
2017-02-13T00:19:32.302Z,0
2017-02-13T00:20:43.011Z,0
2017-02-13T00:21:53.693Z,0
2017-02-13T00:23:04.064Z,0
2017-02-13T00:24:14.351Z,0
2017-02-13T00:25:25.004Z,0
2017-02-13T00:26:35.693Z,0
2017-02-13T00:27:46.373Z,0
2017-02-13T00:28:56.778Z,0
2017-02-13T00:30:07.076Z,0
2017-02-13T00:31:17.751Z,0
2017-02-13T00:32:28.051Z,0
2017-02-13T00:33:37.948Z,0
2017-02-13T00:34:48.101Z,0
2017-02-13T00:35:58.771Z,0
2017-02-13T00:37:09.432Z,0
2017-02-13T00:38:20.123Z,0
2017-02-13T00:39:30.432Z,0
2017-02-13T00:40:40.848Z,0
2017-02-13T00:41:51.135Z,0
2017-02-13T00:43:01.416Z,0
2017-02-13T00:44:11.317Z,0
2017-02-13T00:45:21.617Z,0
2017-02-13T00:46:31.837Z,0
2017-02-13T00:47:42.038Z,0
2017-02-13T00:48:53.028Z,0
2017-02-13T00:50:02.939Z,0
2017-02-13T00:51:12.857Z,0
2017-02-13T00:52:22.519Z,0
2017-02-13T00:53:32.806Z,0
2017-02-13T00:54:42.722Z,0
2017-02-13T00:55:53.374Z,0
2017-02-13T00:57:03.653Z,0
2017-02-13T00:58:14.576Z,0
2017-02-13T00:59:24.892Z,0
2017-02-13T01:00:35.644Z,0
2017-02-13T01:01:45.936Z,0
2017-02-13T01:02:56.233Z,0
2017-02-13T01:04:07.199Z,0
2017-02-13T01:05:17.873Z,0
2017-02-13T01:06:28.159Z,0
2017-02-13T01:07:38.430Z,0
2017-02-13T01:08:49.132Z,0
2017-02-13T01:09:59.688Z,0
2017-02-13T01:11:10.372Z,0
2017-02-13T01:12:20.291Z,0
2017-02-13T01:13:30.961Z,0
2017-02-13T01:14:41.323Z,0
2017-02-13T01:15:51.865Z,0
2017-02-13T01:17:02.542Z,0
2017-02-13T01:18:13.514Z,0
2017-02-13T01:19:23.804Z,0
2017-02-13T01:20:34.090Z,0
2017-02-13T01:21:45.072Z,0
2017-02-13T01:22:54.955Z,0
2017-02-13T01:24:05.255Z,0
2017-02-13T01:25:15.142Z,0
2017-02-13T01:26:25.827Z,0
2017-02-13T01:27:36.368Z,0
2017-02-13T01:28:46.637Z,0
2017-02-13T01:29:56.982Z,0
2017-02-13T01:31:07.263Z,0
2017-02-13T01:32:17.932Z,0
2017-02-13T01:33:28.899Z,0
2017-02-13T01:34:39.203Z,0
2017-02-13T01:35:49.497Z,0
2017-02-13T01:37:00.148Z,0
2017-02-13T01:38:10.026Z,0
2017-02-13T01:39:20.954Z,0
2017-02-13T01:40:31.669Z,0
2017-02-13T01:41:41.574Z,0
2017-02-13T01:42:51.877Z,0
2017-02-13T01:44:02.219Z,0
2017-02-13T01:45:12.797Z,0
2017-02-13T01:46:23.104Z,0
2017-02-13T01:47:33.383Z,0
2017-02-13T01:48:43.682Z,0
2017-02-13T01:49:54.342Z,0
2017-02-13T01:51:04.918Z,0
2017-02-13T01:52:15.651Z,0
2017-02-13T01:53:25.943Z,0
2017-02-13T01:54:36.214Z,0
2017-02-13T01:55:46.894Z,0
2017-02-13T01:56:57.508Z,0
2017-02-13T01:58:08.209Z,0
2017-02-13T01:59:18.496Z,0
2017-02-13T02:00:28.857Z,0
2017-02-13T02:01:39.163Z,0
2017-02-13T02:02:49.682Z,0
2017-02-13T02:03:59.221Z,0
2017-02-13T02:05:09.939Z,0
2017-02-13T02:06:19.766Z,0
2017-02-13T02:07:30.063Z,0
2017-02-13T02:08:41.075Z,0
2017-02-13T02:09:51.359Z,0
2017-02-13T02:11:01.640Z,0
2017-02-13T02:12:12.330Z,0
2017-02-13T02:13:22.632Z,0
2017-02-13T02:14:32.831Z,0
2017-02-13T02:15:43.496Z,0
2017-02-13T02:16:54.172Z,0
2017-02-13T02:18:04.090Z,0
2017-02-13T02:19:14.760Z,0
2017-02-13T02:20:25.700Z,0
2017-02-13T02:21:36.388Z,0
2017-02-13T02:22:47.048Z,0
2017-02-13T02:23:57.856Z,0
2017-02-13T02:25:08.154Z,0
2017-02-13T02:26:18.975Z,0
2017-02-13T02:27:29.544Z,0
2017-02-13T02:28:39.882Z,0
2017-02-13T02:29:50.159Z,0
2017-02-13T02:31:00.490Z,0
2017-02-13T02:32:11.437Z,0
2017-02-13T02:33:22.151Z,0
2017-02-13T02:34:32.828Z,0
2017-02-13T02:35:43.133Z,0
2017-02-13T02:36:53.811Z,0
2017-02-13T02:38:03.962Z,0
2017-02-13T02:39:13.868Z,0
2017-02-13T02:40:23.760Z,0
2017-02-13T02:41:34.423Z,0
2017-02-13T02:42:44.720Z,0
2017-02-13T02:43:55.308Z,0
2017-02-13T02:45:05.624Z,0
2017-02-13T02:46:15.924Z,0
2017-02-13T02:47:26.228Z,0
2017-02-13T02:48:36.509Z,0
2017-02-13T02:49:47.057Z,0
2017-02-13T02:50:56.947Z,0
2017-02-13T02:52:06.846Z,0
2017-02-13T02:53:17.539Z,0
2017-02-13T02:54:27.855Z,0
2017-02-13T02:55:38.391Z,0
2017-02-13T02:56:49.095Z,0
2017-02-13T02:57:59.797Z,0
2017-02-13T02:59:10.497Z,0
2017-02-13T03:00:20.409Z,0
2017-02-13T03:01:30.686Z,0
2017-02-13T03:02:41.349Z,0
2017-02-13T03:03:51.654Z,0
2017-02-13T03:05:02.317Z,0
2017-02-13T03:06:12.610Z,0
2017-02-13T03:07:23.166Z,0
2017-02-13T03:08:33.056Z,0
2017-02-13T03:09:43.378Z,0
2017-02-13T03:10:53.674Z,0
2017-02-13T03:12:03.258Z,0
2017-02-13T03:13:13.390Z,0
2017-02-13T03:14:23.690Z,0
2017-02-13T03:15:34.380Z,0
2017-02-13T03:16:45.070Z,0
2017-02-13T03:17:55.374Z,0
2017-02-13T03:19:06.323Z,0
2017-02-13T03:20:16.254Z,0
2017-02-13T03:21:26.911Z,0
2017-02-13T03:22:37.219Z,0
2017-02-13T03:23:47.121Z,0
2017-02-13T03:24:58.088Z,0
2017-02-13T03:26:07.239Z,0
2017-02-13T03:27:17.509Z,0
2017-02-13T03:28:27.770Z,0
2017-02-13T03:29:37.285Z,0
2017-02-13T03:30:47.808Z,0
2017-02-13T03:31:58.080Z,0
2017-02-13T03:33:08.385Z,0
2017-02-13T03:34:19.075Z,0
2017-02-13T03:35:29.371Z,0
2017-02-13T03:36:40.365Z,0
2017-02-13T03:37:51.058Z,0
2017-02-13T03:39:00.995Z,0
2017-02-13T03:40:11.271Z,0
2017-02-13T03:41:21.938Z,0
2017-02-13T03:42:32.645Z,0
2017-02-13T03:43:43.329Z,0
2017-02-13T03:44:53.671Z,0
2017-02-13T03:46:04.327Z,0
2017-02-13T03:47:14.984Z,0
2017-02-13T03:48:25.519Z,0
2017-02-13T03:49:36.215Z,0
2017-02-13T03:50:46.877Z,0
2017-02-13T03:51:57.549Z,0
2017-02-13T03:53:07.853Z,0
2017-02-13T03:54:18.827Z,0
2017-02-13T03:55:29.166Z,0
2017-02-13T03:56:39.843Z,0
2017-02-13T03:57:49.355Z,0
2017-02-13T03:58:59.279Z,0
2017-02-13T04:00:09.869Z,0
2017-02-13T04:01:19.399Z,0
2017-02-13T04:02:29.664Z,0
2017-02-13T04:03:40.341Z,0
2017-02-13T04:04:50.648Z,0
2017-02-13T04:06:00.796Z,0
2017-02-13T04:07:10.703Z,0
2017-02-13T04:08:21.365Z,0
2017-02-13T04:09:32.055Z,0
2017-02-13T04:10:42.762Z,0
2017-02-13T04:11:52.750Z,0
2017-02-13T04:13:02.673Z,0
2017-02-13T04:14:13.347Z,0
2017-02-13T04:15:24.041Z,0
2017-02-13T04:16:34.337Z,0
2017-02-13T04:17:45.256Z,0
2017-02-13T04:18:55.578Z,0
2017-02-13T04:20:05.878Z,0
2017-02-13T04:21:16.165Z,0
2017-02-13T04:22:26.829Z,0
2017-02-13T04:23:37.393Z,0
2017-02-13T04:24:48.091Z,0
2017-02-13T04:25:58.003Z,0
2017-02-13T04:27:07.918Z,0
2017-02-13T04:28:18.254Z,0
2017-02-13T04:29:28.781Z,0
2017-02-13T04:30:39.449Z,0
2017-02-13T04:31:49.723Z,0
2017-02-13T04:33:00.394Z,0
2017-02-13T04:34:10.725Z,0
2017-02-13T04:35:21.291Z,0
2017-02-13T04:36:31.599Z,0
2017-02-13T04:37:42.290Z,0
2017-02-13T04:38:52.967Z,0
2017-02-13T04:40:03.636Z,0
2017-02-13T04:41:14.615Z,0
2017-02-13T04:42:24.899Z,0
2017-02-13T04:43:35.195Z,0
2017-02-13T04:44:45.858Z,0
2017-02-13T04:45:55.779Z,0
2017-02-13T04:47:06.347Z,0
2017-02-13T04:48:16.620Z,0
2017-02-13T04:49:26.909Z,0
2017-02-13T04:50:37.596Z,0
2017-02-13T04:51:48.271Z,0
2017-02-13T04:52:58.845Z,0
2017-02-13T04:54:09.154Z,0
2017-02-13T04:55:19.445Z,0
2017-02-13T04:56:30.134Z,0
2017-02-13T04:57:40.410Z,0
2017-02-13T04:58:51.360Z,0
2017-02-13T05:00:02.044Z,0
2017-02-13T05:01:12.407Z,0
2017-02-13T05:02:22.703Z,0
2017-02-13T05:03:32.981Z,0
2017-02-13T05:04:43.119Z,0
2017-02-13T05:05:53.413Z,0
2017-02-13T05:07:03.709Z,0
2017-02-13T05:08:14.394Z,0
2017-02-13T05:09:25.085Z,0
2017-02-13T05:10:36.027Z,0
2017-02-13T05:11:46.355Z,0
2017-02-13T05:12:57.076Z,0
2017-02-13T05:14:07.770Z,0
2017-02-13T05:15:18.053Z,0
2017-02-13T05:16:28.976Z,0
2017-02-13T05:17:39.279Z,0
2017-02-13T05:18:49.571Z,0
2017-02-13T05:19:59.834Z,0
2017-02-13T05:21:09.769Z,0
2017-02-13T05:22:19.912Z,0
2017-02-13T05:23:30.629Z,0
2017-02-13T05:24:40.930Z,0
2017-02-13T05:25:51.603Z,0
2017-02-13T05:27:02.323Z,0
2017-02-13T05:28:13.307Z,0
2017-02-13T05:29:22.796Z,0
2017-02-13T05:30:33.464Z,0
2017-02-13T05:31:42.618Z,0
2017-02-13T05:32:53.331Z,0
2017-02-13T05:34:03.483Z,0
2017-02-13T05:35:14.065Z,0
2017-02-13T05:36:24.363Z,0
2017-02-13T05:37:35.049Z,0
2017-02-13T05:38:45.717Z,0
2017-02-13T05:39:56.679Z,0
2017-02-13T05:41:06.981Z,0
2017-02-13T05:42:16.903Z,0
2017-02-13T05:43:27.218Z,0
2017-02-13T05:44:37.902Z,0
2017-02-13T05:45:48.436Z,0
2017-02-13T05:46:58.026Z,0
2017-02-13T05:48:08.715Z,0
2017-02-13T05:49:19.028Z,0
2017-02-13T05:50:28.946Z,0
2017-02-13T05:51:39.867Z,0
2017-02-13T05:52:50.199Z,0
2017-02-13T05:54:00.094Z,0
2017-02-13T05:55:09.979Z,0
2017-02-13T05:56:20.678Z,0
2017-02-13T05:57:31.243Z,0
2017-02-13T05:58:41.522Z,0
2017-02-13T05:59:51.830Z,0
2017-02-13T06:01:01.731Z,0
2017-02-13T06:02:12.404Z,0
2017-02-13T06:03:22.959Z,0
2017-02-13T06:04:33.637Z,0
2017-02-13T06:05:43.904Z,0
2017-02-13T06:06:54.573Z,0
2017-02-13T06:08:05.253Z,0
2017-02-13T06:09:14.638Z,0
2017-02-13T06:10:25.312Z,0
2017-02-13T06:11:35.206Z,0
2017-02-13T06:12:45.877Z,0
2017-02-13T06:13:56.190Z,0
2017-02-13T06:15:06.803Z,0
2017-02-13T06:16:17.477Z,0
2017-02-13T06:17:27.756Z,0
2017-02-13T06:18:37.669Z,0
2017-02-13T06:19:47.970Z,0
2017-02-13T06:20:58.874Z,0
2017-02-13T06:22:09.548Z,0
2017-02-13T06:23:19.838Z,0
2017-02-13T06:24:30.114Z,0
2017-02-13T06:25:40.023Z,0
2017-02-13T06:26:50.537Z,0
2017-02-13T06:27:59.681Z,0
2017-02-13T06:29:09.966Z,0
2017-02-13T06:30:20.667Z,0
2017-02-13T06:31:31.367Z,0
2017-02-13T06:32:42.306Z,0
2017-02-13T06:33:52.576Z,0
2017-02-13T06:35:02.836Z,0
2017-02-13T06:36:13.836Z,0
2017-02-13T06:37:23.767Z,0
2017-02-13T06:38:34.295Z,0
2017-02-13T06:39:44.570Z,0
2017-02-13T06:40:55.275Z,0
2017-02-13T06:42:05.651Z,0
2017-02-13T06:43:15.599Z,0
2017-02-13T06:44:26.555Z,0
2017-02-13T06:45:36.883Z,0
2017-02-13T06:49:22.002Z,0
2017-02-13T06:50:31.914Z,0
2017-02-13T06:51:42.606Z,0
2017-02-13T06:52:52.907Z,0
2017-02-13T06:54:03.552Z,0
2017-02-13T06:55:14.136Z,0
2017-02-13T06:56:24.808Z,0
2017-02-13T06:57:35.066Z,0
2017-02-13T06:58:44.597Z,0
2017-02-13T06:59:54.528Z,0
2017-02-13T07:01:04.690Z,0
2017-02-13T07:02:14.597Z,0
2017-02-13T07:03:24.939Z,0
2017-02-13T07:04:35.230Z,0
2017-02-13T07:05:45.944Z,0
2017-02-13T07:06:56.562Z,0
2017-02-13T07:08:06.873Z,0
2017-02-13T07:09:16.778Z,0
2017-02-13T07:10:27.465Z,0
2017-02-13T07:11:37.742Z,0
2017-02-13T07:12:47.873Z,0
2017-02-13T07:13:58.558Z,0
2017-02-13T07:15:08.901Z,0
2017-02-13T07:16:18.810Z,0
2017-02-13T07:17:29.484Z,0
2017-02-13T07:18:40.407Z,0
2017-02-13T07:19:50.662Z,0
2017-02-13T07:21:01.160Z,0
2017-02-13T07:22:11.445Z,0
2017-02-13T07:23:21.717Z,0
2017-02-13T07:24:31.907Z,0
2017-02-13T07:25:42.570Z,0
2017-02-13T07:26:53.213Z,0
2017-02-13T07:28:03.502Z,0
2017-02-13T07:29:13.764Z,5
2017-02-13T07:30:24.315Z,5
2017-02-13T07:31:34.598Z,5
2017-02-13T07:32:44.489Z,5
2017-02-13T07:33:55.156Z,5
2017-02-13T07:35:05.431Z,5
2017-02-13T07:36:16.265Z,5
2017-02-13T07:37:26.557Z,5
2017-02-13T07:38:36.829Z,5
2017-02-13T07:39:47.483Z,5
2017-02-13T07:40:57.437Z,5
2017-02-13T07:42:08.353Z,5
2017-02-13T07:43:19.283Z,5
2017-02-13T07:44:29.633Z,5
2017-02-13T07:45:46.195Z,5
2017-02-13T07:46:56.869Z,5
2017-02-13T07:48:07.414Z,5
2017-02-13T07:49:17.690Z,5
2017-02-13T07:50:28.002Z,5
2017-02-13T07:51:38.406Z,5
2017-02-13T07:52:48.716Z,5
2017-02-13T07:53:59.254Z,5
2017-02-13T07:55:09.908Z,5
2017-02-13T07:56:19.793Z,10
2017-02-13T07:57:30.482Z,10
2017-02-13T07:58:40.797Z,10
2017-02-13T07:59:51.692Z,10
2017-02-13T08:01:02.401Z,10
2017-02-13T08:02:13.251Z,10
2017-02-13T08:03:23.945Z,10
2017-02-13T08:04:34.237Z,10
2017-02-13T08:05:45.157Z,10
2017-02-13T08:06:55.822Z,10
2017-02-13T08:08:06.485Z,10
2017-02-13T08:09:16.780Z,10
2017-02-13T08:10:27.466Z,10
2017-02-13T08:11:38.539Z,15
2017-02-13T08:12:48.800Z,15
2017-02-13T08:13:58.689Z,10
2017-02-13T08:15:08.986Z,15
2017-02-13T08:16:18.875Z,15
2017-02-13T08:17:29.807Z,15
2017-02-13T08:18:40.509Z,15
2017-02-13T08:19:51.183Z,15
2017-02-13T08:21:01.897Z,15
2017-02-13T08:22:12.551Z,15
2017-02-13T08:23:23.191Z,15
2017-02-13T08:24:33.853Z,15
2017-02-13T08:25:44.554Z,15
2017-02-13T08:26:55.218Z,15
2017-02-13T08:28:05.554Z,15
2017-02-13T08:29:16.531Z,15
2017-02-13T08:30:26.838Z,15
2017-02-13T08:31:36.772Z,20
2017-02-13T08:32:47.039Z,20
2017-02-13T08:33:57.702Z,20
2017-02-13T08:35:08.250Z,20
2017-02-13T08:36:18.964Z,20
2017-02-13T08:37:28.884Z,20
2017-02-13T08:38:39.593Z,20
2017-02-13T08:39:49.972Z,20
2017-02-13T08:41:00.897Z,25
2017-02-13T08:42:11.195Z,25
2017-02-13T08:43:21.472Z,25
2017-02-13T08:44:32.159Z,25
2017-02-13T08:45:42.459Z,25
2017-02-13T08:46:53.048Z,30
2017-02-13T08:48:03.239Z,30
2017-02-13T08:49:13.528Z,30
2017-02-13T08:50:23.451Z,30
2017-02-13T08:51:33.352Z,35
2017-02-13T08:52:44.271Z,30
2017-02-13T08:53:54.183Z,30
2017-02-13T08:55:04.534Z,30
2017-02-13T08:56:14.091Z,25
2017-02-13T08:57:24.805Z,25
2017-02-13T08:58:35.732Z,25
2017-02-13T08:59:46.416Z,25
2017-02-13T09:00:56.321Z,25
2017-02-13T09:02:06.637Z,25
2017-02-13T09:03:17.317Z,25
2017-02-13T09:04:27.472Z,25
2017-02-13T09:05:38.147Z,25
2017-02-13T09:06:48.414Z,25
2017-02-13T09:07:59.063Z,25
2017-02-13T09:09:09.737Z,25
2017-02-13T09:10:20.305Z,25
2017-02-13T09:11:30.581Z,25
2017-02-13T09:12:40.848Z,25
2017-02-13T09:13:51.523Z,25
2017-02-13T09:15:02.109Z,25
2017-02-13T09:16:12.261Z,25
2017-02-13T09:17:22.191Z,25
2017-02-13T09:18:32.490Z,25
2017-02-13T09:19:43.159Z,25
2017-02-13T09:20:53.538Z,25
2017-02-13T09:22:04.122Z,25
2017-02-13T09:23:14.766Z,25
2017-02-13T09:24:24.664Z,25
2017-02-13T09:25:34.607Z,25
2017-02-13T09:26:44.956Z,25
2017-02-13T09:27:55.098Z,25
2017-02-13T09:29:05.398Z,25
2017-02-13T09:30:15.304Z,25
2017-02-13T09:31:25.589Z,25
2017-02-13T09:32:35.881Z,25
2017-02-13T09:33:46.419Z,25
2017-02-13T09:34:56.303Z,25
2017-02-13T09:36:06.601Z,25
2017-02-13T09:37:16.533Z,25
2017-02-13T09:38:26.060Z,25
2017-02-13T09:39:36.966Z,25
2017-02-13T09:40:47.272Z,25
2017-02-13T09:41:57.625Z,25
2017-02-13T09:43:08.284Z,25
2017-02-13T09:44:18.594Z,25
2017-02-13T09:45:29.163Z,25
2017-02-13T09:46:39.839Z,20
2017-02-13T09:47:50.519Z,25
2017-02-13T09:49:00.425Z,25
2017-02-13T09:50:10.730Z,25
2017-02-13T09:51:21.261Z,25
2017-02-13T09:52:31.569Z,25
2017-02-13T09:53:42.249Z,25
2017-02-13T09:54:52.931Z,25
2017-02-13T09:56:03.247Z,25
2017-02-13T09:57:14.171Z,25
2017-02-13T09:58:24.075Z,25
2017-02-13T09:59:34.754Z,25
2017-02-13T10:00:45.053Z,25
2017-02-13T10:01:55.344Z,25
2017-02-13T10:03:06.269Z,25
2017-02-13T10:04:16.167Z,25
2017-02-13T10:05:26.101Z,25
2017-02-13T10:06:36.478Z,25
2017-02-13T10:07:47.268Z,25
2017-02-13T10:08:58.283Z,20
2017-02-13T10:10:08.949Z,25
2017-02-13T10:11:19.274Z,20
2017-02-13T10:12:29.615Z,20
2017-02-13T10:13:39.906Z,20
2017-02-13T10:14:50.832Z,20
2017-02-13T10:16:00.743Z,20
2017-02-13T10:17:11.076Z,20
2017-02-13T10:18:21.366Z,20
2017-02-13T10:19:31.673Z,20
2017-02-13T10:20:42.588Z,20
2017-02-13T10:21:52.871Z,20
2017-02-13T10:23:03.179Z,20
2017-02-13T10:24:13.114Z,20
2017-02-13T10:25:23.413Z,20
2017-02-13T10:26:33.586Z,20
2017-02-13T10:27:43.914Z,20
2017-02-13T10:28:54.197Z,20
2017-02-13T10:30:04.916Z,20
2017-02-13T10:31:15.606Z,20
2017-02-13T10:32:25.802Z,20
2017-02-13T10:33:35.714Z,20
2017-02-13T10:34:46.057Z,20
2017-02-13T10:35:56.330Z,20
2017-02-13T10:37:07.008Z,20
2017-02-13T10:38:17.557Z,20
2017-02-13T10:39:27.482Z,20
2017-02-13T10:40:37.762Z,20
2017-02-13T10:41:48.056Z,20
2017-02-13T10:42:57.959Z,20
2017-02-13T10:44:08.876Z,20
2017-02-13T10:45:19.166Z,20
2017-02-13T10:46:29.872Z,20
2017-02-13T10:47:39.773Z,20
2017-02-13T10:48:49.704Z,20
2017-02-13T10:50:00.640Z,20
2017-02-13T10:51:11.339Z,20
2017-02-13T10:52:21.236Z,20
2017-02-13T10:53:31.902Z,20
2017-02-13T10:54:42.175Z,20
2017-02-13T10:55:52.716Z,20
2017-02-13T10:57:02.993Z,20
2017-02-13T10:58:13.960Z,20
2017-02-13T10:59:24.628Z,20
2017-02-13T11:00:35.302Z,20
2017-02-13T11:01:46.217Z,20
2017-02-13T11:02:56.892Z,20
2017-02-13T11:04:07.597Z,20
2017-02-13T11:05:17.506Z,20
2017-02-13T11:06:27.776Z,20
2017-02-13T11:07:38.742Z,20
2017-02-13T11:08:49.017Z,20
2017-02-13T11:09:59.298Z,20
2017-02-13T11:11:09.636Z,20
2017-02-13T11:12:19.920Z,20
2017-02-13T11:13:30.450Z,20
2017-02-13T11:14:40.375Z,20
2017-02-13T11:15:51.048Z,20
2017-02-13T11:17:01.720Z,20
2017-02-13T11:18:11.659Z,20
2017-02-13T11:19:22.187Z,20
2017-02-13T11:20:32.462Z,20
2017-02-13T11:21:42.781Z,20
2017-02-13T11:22:53.471Z,20
2017-02-13T11:24:04.163Z,20
2017-02-13T11:25:14.318Z,20
2017-02-13T11:26:24.212Z,20
2017-02-13T11:27:34.477Z,20
2017-02-13T11:28:45.185Z,20
2017-02-13T11:29:55.089Z,20
2017-02-13T11:31:06.067Z,20
2017-02-13T11:32:16.028Z,20
2017-02-13T11:33:25.582Z,20
2017-02-13T11:34:35.098Z,20
2017-02-13T11:35:45.765Z,20
2017-02-13T11:36:56.838Z,20
2017-02-13T11:38:07.142Z,20
2017-02-13T11:39:17.056Z,20
2017-02-13T11:40:27.008Z,20
2017-02-13T11:41:37.681Z,20
2017-02-13T11:42:48.660Z,20
2017-02-13T11:43:58.560Z,20
2017-02-13T11:45:08.483Z,20
2017-02-13T11:46:18.749Z,20
2017-02-13T11:47:29.423Z,20
2017-02-13T11:48:40.366Z,20
2017-02-13T11:49:50.275Z,20
2017-02-13T11:51:00.568Z,20
2017-02-13T11:52:11.245Z,20
2017-02-13T11:53:21.926Z,20
2017-02-13T11:54:32.047Z,20
2017-02-13T11:55:42.366Z,20
2017-02-13T11:56:52.681Z,20
2017-02-13T11:58:02.200Z,20
2017-02-13T11:59:12.527Z,15
2017-02-13T12:00:23.105Z,20
2017-02-13T12:01:33.409Z,15
2017-02-13T12:02:43.337Z,15
2017-02-13T12:03:53.646Z,15
2017-02-13T12:05:03.947Z,15
2017-02-13T12:06:14.156Z,15
2017-02-13T12:07:24.077Z,15
2017-02-13T12:08:34.349Z,15
2017-02-13T12:09:44.625Z,15
2017-02-13T12:10:55.307Z,15
2017-02-13T12:12:05.838Z,15
2017-02-13T12:13:15.727Z,15
2017-02-13T12:14:26.421Z,15
2017-02-13T12:15:36.382Z,15
2017-02-13T12:16:47.083Z,15
2017-02-13T12:17:57.235Z,15
2017-02-13T12:19:07.923Z,15
2017-02-13T12:20:17.441Z,15
2017-02-13T12:21:27.351Z,15
2017-02-13T12:22:37.641Z,15
2017-02-13T12:23:48.578Z,15
2017-02-13T12:24:58.731Z,15
2017-02-13T12:26:09.022Z,15
2017-02-13T12:27:18.922Z,15
2017-02-13T12:28:29.196Z,15
2017-02-13T12:29:40.179Z,15
2017-02-13T12:30:50.484Z,15
2017-02-13T12:32:01.221Z,15
2017-02-13T12:33:11.563Z,15
2017-02-13T12:34:21.867Z,15
2017-02-13T12:35:32.866Z,15
2017-02-13T12:36:43.558Z,15
2017-02-13T12:37:53.846Z,15
2017-02-13T12:39:04.544Z,15
2017-02-13T12:40:15.201Z,15
2017-02-13T12:41:25.779Z,15
2017-02-13T12:42:36.467Z,15
2017-02-13T12:43:47.167Z,15
2017-02-13T12:45:40.820Z,15
2017-02-13T12:46:51.774Z,15
2017-02-13T12:48:02.470Z,15
2017-02-13T12:49:13.150Z,15
2017-02-13T12:50:23.424Z,15
2017-02-13T12:51:34.124Z,15
2017-02-13T12:52:44.706Z,15
2017-02-13T12:53:55.355Z,15
2017-02-13T12:55:05.656Z,15
2017-02-13T12:56:15.918Z,15
2017-02-13T12:57:26.597Z,15
2017-02-13T12:58:37.569Z,15
2017-02-13T12:59:48.237Z,15
2017-02-13T13:00:58.930Z,15
2017-02-13T13:02:09.242Z,15
2017-02-13T13:03:19.540Z,15
2017-02-13T13:04:30.095Z,15
2017-02-13T13:05:40.781Z,15
2017-02-13T13:06:51.439Z,15
2017-02-13T13:08:01.354Z,15
2017-02-13T13:09:12.001Z,15
2017-02-13T13:10:22.570Z,15
2017-02-13T13:11:33.233Z,15
2017-02-13T13:12:43.544Z,15
2017-02-13T13:13:53.819Z,15
2017-02-13T13:15:04.475Z,15
2017-02-13T13:16:15.028Z,15
2017-02-13T13:17:24.934Z,15
2017-02-13T13:18:34.049Z,15
2017-02-13T13:19:44.721Z,15
2017-02-13T13:20:55.408Z,15
2017-02-13T13:22:06.341Z,15
2017-02-13T13:23:16.648Z,15
2017-02-13T13:24:26.936Z,15
2017-02-13T13:25:37.246Z,15
2017-02-13T13:26:47.164Z,15
2017-02-13T13:27:58.069Z,15
2017-02-13T13:29:08.353Z,15
2017-02-13T13:30:18.234Z,15
2017-02-13T13:31:28.580Z,15
2017-02-13T13:32:39.238Z,15
2017-02-13T13:33:49.779Z,15
2017-02-13T13:35:00.064Z,15
2017-02-13T13:36:10.341Z,15
2017-02-13T13:37:21.012Z,15
2017-02-13T13:38:31.271Z,15
2017-02-13T13:39:41.882Z,15
2017-02-13T13:40:52.157Z,15
2017-02-13T13:42:02.811Z,15
2017-02-13T13:43:12.740Z,15
2017-02-13T13:44:22.640Z,15
2017-02-13T13:45:33.552Z,15
2017-02-13T13:46:43.457Z,15
2017-02-13T13:47:54.168Z,15
2017-02-13T13:49:04.480Z,15
2017-02-13T13:50:15.174Z,15
2017-02-13T13:51:26.119Z,15
2017-02-13T13:52:36.442Z,15
2017-02-13T13:53:46.717Z,15
2017-02-13T13:54:57.406Z,15
2017-02-13T13:56:07.295Z,15
2017-02-13T13:57:17.854Z,15
2017-02-13T13:58:28.174Z,15
2017-02-13T13:59:38.075Z,15
2017-02-13T14:00:48.767Z,15
2017-02-13T14:01:59.079Z,15
2017-02-13T14:03:09.654Z,15
2017-02-13T14:04:19.561Z,15
2017-02-13T14:05:29.477Z,15
2017-02-13T14:06:39.765Z,15
2017-02-13T14:07:50.040Z,15
2017-02-13T14:09:00.187Z,15
2017-02-13T14:10:10.489Z,15
2017-02-13T14:11:19.986Z,15
2017-02-13T14:12:30.708Z,15
2017-02-13T14:13:41.361Z,15
2017-02-13T14:14:51.552Z,15
2017-02-13T14:16:02.222Z,15
2017-02-13T14:17:12.514Z,15
2017-02-13T14:18:22.805Z,15
2017-02-13T14:19:33.477Z,15
2017-02-13T14:20:44.428Z,15
2017-02-13T14:21:54.739Z,15
2017-02-13T14:23:05.041Z,15
2017-02-13T14:24:15.344Z,15
2017-02-13T14:25:26.031Z,15
2017-02-13T14:26:36.213Z,15
2017-02-13T14:27:46.524Z,15
2017-02-13T14:28:56.061Z,15
2017-02-13T14:30:05.960Z,15
2017-02-13T14:31:16.276Z,15
2017-02-13T14:32:26.443Z,15
2017-02-13T14:33:36.358Z,15
2017-02-13T14:34:47.020Z,15
2017-02-13T14:35:57.690Z,15
2017-02-13T14:37:08.369Z,15
2017-02-13T14:38:18.580Z,15
2017-02-13T14:39:29.234Z,15
2017-02-13T14:40:40.188Z,15
2017-02-13T14:41:49.686Z,15
2017-02-13T14:43:00.364Z,15
2017-02-13T14:44:11.274Z,15
2017-02-13T14:45:21.960Z,15
2017-02-13T14:46:32.639Z,15
2017-02-13T14:47:43.317Z,15
2017-02-13T14:48:53.993Z,15
2017-02-13T14:50:04.927Z,15
2017-02-13T14:51:14.839Z,15
2017-02-13T14:52:25.553Z,15
2017-02-13T14:53:35.866Z,15
2017-02-13T14:54:45.763Z,15
2017-02-13T14:55:56.293Z,15
2017-02-13T14:57:06.578Z,15
2017-02-13T14:58:16.470Z,15
2017-02-13T14:59:26.753Z,15
2017-02-13T15:00:37.451Z,15
2017-02-13T15:01:48.062Z,15
2017-02-13T15:02:58.337Z,15
2017-02-13T15:04:08.632Z,10
2017-02-13T15:05:18.979Z,10
2017-02-13T15:06:29.674Z,10
2017-02-13T15:07:40.672Z,10
2017-02-13T15:08:51.352Z,10
2017-02-13T15:10:02.013Z,10
2017-02-13T15:11:12.320Z,10
2017-02-13T15:12:22.202Z,10
2017-02-13T15:13:32.818Z,10
2017-02-13T15:14:43.098Z,10
2017-02-13T15:15:53.394Z,10
2017-02-13T15:17:03.734Z,10
2017-02-13T15:18:13.263Z,10
2017-02-13T15:19:23.740Z,10
2017-02-13T15:20:34.025Z,10
2017-02-13T15:21:43.931Z,10
2017-02-13T15:22:53.849Z,10
2017-02-13T15:24:03.356Z,10
2017-02-13T15:25:13.518Z,10
2017-02-13T15:26:23.426Z,10
2017-02-13T15:27:34.125Z,10
2017-02-13T15:28:44.802Z,10
2017-02-13T15:29:55.084Z,10
2017-02-13T15:31:04.852Z,10
2017-02-13T15:32:15.168Z,10
2017-02-13T15:33:25.433Z,10
2017-02-13T15:34:35.797Z,10
2017-02-13T15:35:46.090Z,10
2017-02-13T15:36:56.258Z,10
2017-02-13T15:38:06.153Z,10
2017-02-13T15:39:16.463Z,10
2017-02-13T15:40:25.977Z,10
2017-02-13T15:41:36.262Z,10
2017-02-13T15:42:46.793Z,10
2017-02-13T15:43:56.698Z,10
2017-02-13T15:45:07.398Z,10
2017-02-13T15:46:17.294Z,10
2017-02-13T15:47:27.985Z,10
2017-02-13T15:48:38.153Z,10
2017-02-13T15:49:48.048Z,10
2017-02-13T15:50:57.557Z,5
2017-02-13T15:52:07.845Z,5
2017-02-13T15:53:18.154Z,5
2017-02-13T15:54:28.698Z,5
2017-02-13T15:55:38.970Z,5
2017-02-13T15:56:49.278Z,5
2017-02-13T15:57:59.939Z,5
2017-02-13T15:59:09.445Z,5
2017-02-13T16:00:19.677Z,5
2017-02-13T16:01:29.985Z,5
2017-02-13T16:02:40.274Z,5
2017-02-13T16:03:50.576Z,5
2017-02-13T16:05:00.529Z,5
2017-02-13T16:06:11.464Z,5
2017-02-13T16:07:21.769Z,5
2017-02-13T16:08:31.643Z,5
2017-02-13T16:09:42.336Z,5
2017-02-13T16:10:52.245Z,5
2017-02-13T16:12:02.783Z,5
2017-02-13T16:13:13.064Z,5
2017-02-13T16:14:22.989Z,5
2017-02-13T16:15:32.514Z,5
2017-02-13T16:16:43.191Z,5
2017-02-13T16:17:53.725Z,5
2017-02-13T16:19:04.018Z,5
2017-02-13T16:20:13.891Z,5
2017-02-13T16:21:24.180Z,0
2017-02-13T16:22:34.456Z,0
2017-02-13T16:23:44.998Z,0
2017-02-13T16:24:54.884Z,0
2017-02-13T16:26:05.168Z,0
2017-02-13T16:27:15.472Z,0
2017-02-13T16:28:25.748Z,0
2017-02-13T16:29:36.345Z,0
2017-02-13T16:30:47.038Z,0
2017-02-13T16:31:56.538Z,0
2017-02-13T16:33:06.846Z,0
2017-02-13T16:34:17.529Z,0
2017-02-13T16:35:27.727Z,0
2017-02-13T16:36:38.390Z,0
2017-02-13T16:37:49.079Z,0
2017-02-13T16:38:58.994Z,0
2017-02-13T16:40:08.917Z,0
2017-02-13T16:41:18.711Z,0
2017-02-13T16:42:29.428Z,0
2017-02-13T16:43:39.362Z,0
2017-02-13T16:44:49.628Z,0
2017-02-13T16:46:00.321Z,0
2017-02-13T16:47:10.450Z,0
2017-02-13T16:48:20.331Z,0
2017-02-13T16:49:31.011Z,0
2017-02-13T16:50:40.964Z,0
2017-02-13T16:51:51.691Z,0
2017-02-13T16:53:02.221Z,0
2017-02-13T16:54:12.153Z,0
2017-02-13T16:55:22.427Z,0
2017-02-13T16:56:32.326Z,0
2017-02-13T16:57:42.216Z,0
2017-02-13T16:58:52.735Z,0
2017-02-13T17:00:03.391Z,0
2017-02-13T17:01:13.289Z,0
2017-02-13T17:02:23.591Z,0
2017-02-13T17:03:33.903Z,0
2017-02-13T17:04:44.862Z,0
2017-02-13T17:05:54.772Z,0
2017-02-13T17:07:05.444Z,0